createdAt,value
2018-09-12T00:01:18.135Z,16.32
2018-09-12T00:03:47.273Z,16.29
2018-09-12T00:06:16.826Z,16.29
2018-09-12T00:08:46.016Z,16.32
2018-09-12T00:11:16.774Z,16.30
2018-09-12T00:13:45.945Z,16.31
2018-09-12T00:16:21.532Z,16.28
2018-09-12T00:18:50.675Z,16.25
2018-09-12T00:21:24.364Z,16.23
2018-09-12T00:23:53.557Z,16.20
2018-09-12T00:26:24.900Z,16.16
2018-09-12T00:28:54.102Z,16.11
2018-09-12T00:31:37.812Z,16.03
2018-09-12T00:34:07.348Z,16.04
2018-09-12T00:36:36.561Z,16.00
2018-09-12T00:39:09.606Z,15.96
2018-09-12T00:41:38.896Z,15.93
2018-09-12T00:44:08.820Z,15.91
2018-09-12T00:46:39.613Z,15.89
2018-09-12T00:49:09.147Z,15.90
2018-09-12T00:51:38.360Z,15.90
2018-09-12T00:54:08.221Z,15.87
2018-09-12T00:56:39.364Z,15.84
2018-09-12T00:59:09.708Z,15.79
2018-09-12T01:01:39.001Z,15.77
2018-09-12T01:04:08.614Z,15.76
2018-09-12T01:06:37.882Z,15.68
2018-09-12T01:09:08.052Z,15.63
2018-09-12T01:11:37.251Z,15.59
2018-09-12T01:14:06.768Z,15.55
2018-09-12T01:16:38.688Z,15.54
2018-09-12T01:19:08.013Z,15.49
2018-09-12T01:21:37.219Z,15.46
2018-09-12T01:24:06.670Z,15.45
2018-09-12T01:26:35.850Z,15.42
2018-09-12T01:29:05.126Z,15.37
2018-09-12T01:31:36.096Z,15.34
2018-09-12T01:34:05.490Z,15.29
2018-09-12T01:36:35.708Z,15.26
2018-09-12T01:39:07.532Z,15.21
2018-09-12T01:41:36.746Z,15.19
2018-09-12T01:44:07.766Z,15.18
2018-09-12T01:46:36.900Z,15.18
2018-09-12T01:49:06.045Z,15.17
2018-09-12T01:51:35.592Z,15.17
2018-09-12T01:54:04.748Z,15.16
2018-09-12T01:56:34.559Z,15.16
2018-09-12T01:59:04.705Z,15.15
2018-09-12T02:27:48.080Z,14.96
2018-09-12T02:30:17.243Z,14.94
2018-09-12T02:32:46.404Z,14.90
2018-09-12T02:35:17.734Z,14.88
2018-09-12T02:37:51.017Z,14.86
2018-09-12T02:40:20.157Z,14.84
2018-09-12T02:56:04.353Z,14.71
2018-09-12T02:58:33.898Z,14.68
2018-09-12T03:01:08.509Z,14.66
2018-09-12T03:03:41.010Z,14.63
2018-09-12T03:06:13.489Z,14.61
2018-09-12T03:08:42.693Z,14.57
2018-09-12T03:11:12.285Z,14.55
2018-09-12T03:13:43.651Z,14.53
2018-09-12T03:16:14.693Z,14.50
2018-09-12T03:18:48.666Z,14.47
2018-09-12T03:21:18.312Z,14.41
2018-09-12T03:23:47.448Z,14.39
2018-09-12T03:26:16.951Z,14.36
2018-09-12T03:28:46.139Z,14.34
2018-09-12T03:31:15.654Z,14.33
2018-09-12T03:33:48.226Z,14.30
2018-09-12T03:36:19.619Z,14.27
2018-09-12T03:38:51.768Z,14.27
2018-09-12T03:41:20.934Z,14.25
2018-09-12T03:43:50.084Z,14.24
2018-09-12T03:46:19.606Z,14.24
2018-09-12T03:48:48.887Z,14.22
2018-09-12T03:51:20.232Z,14.18
2018-09-12T03:53:49.414Z,14.16
2018-09-12T03:56:19.808Z,14.17
2018-09-12T03:58:49.035Z,14.17
2018-09-12T04:01:18.267Z,14.18
2018-09-12T04:03:47.437Z,14.19
2018-09-12T04:06:18.205Z,14.21
2018-09-12T04:08:47.401Z,14.20
2018-09-12T04:11:16.978Z,14.19
2018-09-12T04:13:46.185Z,14.17
2018-09-12T04:16:15.340Z,14.15
2018-09-12T04:18:46.208Z,14.14
2018-09-12T04:21:15.383Z,14.08
2018-09-12T04:23:47.352Z,14.03
2018-09-12T04:26:18.638Z,14.03
2018-09-12T04:28:47.877Z,14.00
2018-09-12T04:31:17.024Z,13.98
2018-09-12T04:33:46.180Z,13.92
2018-09-12T04:36:15.427Z,13.85
2018-09-12T04:38:44.560Z,13.82
2018-09-12T04:41:14.165Z,13.80
2018-09-12T04:43:43.392Z,13.81
2018-09-12T04:46:12.907Z,13.81
2018-09-12T04:48:42.082Z,13.81
2018-09-12T04:51:11.722Z,13.80
2018-09-12T04:53:40.833Z,13.81
2018-09-12T04:56:10.354Z,13.82
2018-09-12T04:58:39.486Z,13.81
2018-09-12T05:01:10.430Z,13.81
2018-09-12T05:03:39.666Z,13.81
2018-09-12T05:06:11.394Z,13.81
2018-09-12T05:08:50.494Z,13.81
2018-09-12T05:11:19.596Z,13.77
2018-09-12T05:13:48.782Z,13.72
2018-09-12T05:16:17.872Z,13.71
2018-09-12T05:20:33.188Z,13.74
2018-09-12T05:23:04.976Z,13.73
2018-09-12T05:25:34.514Z,13.74
2018-09-12T05:28:05.464Z,13.72
2018-09-12T05:30:36.794Z,13.76
2018-09-12T05:46:28.206Z,13.92
2018-09-12T05:49:05.627Z,13.97
2018-09-12T05:51:47.062Z,14.04
2018-09-12T05:54:21.720Z,14.10
2018-09-12T05:56:55.011Z,14.16
2018-09-12T05:59:29.863Z,14.21
2018-09-12T06:02:03.043Z,14.26
2018-09-12T06:04:36.726Z,14.34
2018-09-12T06:07:09.527Z,14.41
2018-09-12T06:09:43.407Z,14.51
2018-09-12T06:12:16.201Z,14.60
2018-09-12T06:14:47.546Z,14.67
2018-09-12T06:17:19.134Z,14.77
2018-09-12T06:19:50.299Z,14.85
2018-09-12T06:22:24.863Z,14.95
2018-09-12T06:24:59.237Z,15.04
2018-09-12T06:27:30.247Z,15.13
2018-09-12T06:29:59.446Z,15.22
2018-09-12T06:32:28.697Z,15.32
2018-09-12T06:35:05.977Z,15.39
2018-09-12T06:37:38.380Z,15.47
2018-09-12T06:42:41.284Z,15.61
2018-09-12T06:45:10.804Z,15.67
2018-09-12T06:47:43.332Z,15.77
2018-09-12T06:50:12.509Z,15.89
2018-09-12T06:52:43.481Z,15.99
2018-09-12T06:55:12.854Z,16.09
2018-09-12T06:57:42.001Z,16.17
2018-09-12T07:00:11.548Z,16.23
2018-09-12T07:02:42.663Z,16.31
2018-09-12T07:05:12.177Z,16.39
2018-09-12T07:07:41.479Z,16.50
2018-09-12T07:10:10.993Z,16.58
2018-09-12T07:12:40.286Z,16.64
2018-09-12T07:15:09.844Z,16.74
2018-09-12T07:17:40.667Z,16.83
2018-09-12T07:20:10.324Z,16.91
2018-09-12T07:22:40.230Z,17.02
2018-09-12T07:25:09.786Z,17.14
2018-09-12T07:27:39.187Z,17.27
2018-09-12T07:30:10.967Z,17.39
2018-09-12T07:32:40.156Z,17.53
2018-09-12T07:35:09.714Z,17.65
2018-09-12T07:37:39.160Z,17.73
2018-09-12T07:40:09.281Z,17.79
2018-09-12T07:42:40.017Z,17.88
2018-09-12T07:45:10.482Z,17.98
2018-09-12T07:47:39.667Z,18.09
2018-09-12T07:50:09.432Z,18.18
2018-09-12T07:52:39.445Z,18.28
2018-09-12T07:55:10.124Z,18.40
2018-09-12T07:57:40.332Z,18.50
2018-09-12T08:00:10.815Z,18.61
2018-09-12T08:02:40.006Z,18.68
2018-09-12T08:05:09.654Z,18.77
2018-09-12T08:07:39.618Z,18.89
2018-09-12T08:10:10.413Z,19.00
2018-09-12T08:12:39.588Z,19.14
2018-09-12T08:15:09.393Z,19.23
2018-09-12T08:22:40.148Z,19.51
2018-09-12T08:25:09.795Z,19.65
2018-09-12T08:27:39.714Z,19.76
2018-09-12T08:30:09.784Z,19.86
2018-09-12T08:32:39.930Z,20.03
2018-09-12T08:35:09.678Z,20.19
2018-09-12T08:37:39.017Z,20.26
2018-09-12T08:40:09.878Z,20.29
2018-09-12T08:42:41.271Z,20.33
2018-09-12T08:45:11.714Z,20.42
2018-09-12T08:47:41.706Z,20.52
2018-09-12T08:50:12.471Z,20.62
2018-09-12T08:52:42.482Z,20.69
2018-09-12T08:55:11.644Z,20.80
2018-09-12T08:57:40.809Z,20.93
2018-09-12T09:00:16.721Z,21.06
2018-09-12T09:02:53.977Z,21.16
2018-09-12T09:05:37.111Z,21.28
2018-09-12T09:08:20.151Z,21.40
2018-09-12T09:10:58.858Z,21.50
2018-09-12T09:16:01.193Z,21.63
2018-09-12T09:18:30.352Z,21.74
2018-09-12T09:20:59.549Z,21.82
2018-09-12T09:23:28.829Z,21.89
2018-09-12T09:26:10.595Z,22.02
2018-09-12T09:28:46.489Z,22.09
2018-09-12T09:31:24.157Z,22.15
2018-09-12T09:33:57.193Z,22.26
2018-09-12T09:36:35.424Z,22.35
2018-09-12T09:39:06.805Z,22.48
2018-09-12T09:41:41.166Z,22.54
2018-09-12T09:44:11.247Z,22.72
2018-09-12T09:46:40.991Z,22.81
2018-09-12T09:49:11.304Z,22.87
2018-09-12T09:51:52.342Z,22.97
2018-09-12T09:54:23.788Z,23.06
2018-09-12T09:56:59.155Z,23.12
2018-09-12T09:59:34.988Z,23.18
2018-09-12T10:05:00.272Z,23.40
2018-09-12T10:07:34.693Z,23.42
2018-09-12T10:10:04.501Z,23.51
2018-09-12T10:12:34.429Z,23.55
2018-09-12T10:15:04.781Z,23.60
2018-09-12T10:17:34.829Z,23.64
2018-09-12T10:20:03.985Z,23.67
2018-09-12T10:22:33.293Z,23.67
2018-09-12T10:25:02.544Z,23.69
2018-09-12T10:27:31.724Z,23.78
2018-09-12T10:30:00.889Z,23.88
2018-09-12T10:32:31.074Z,24.02
2018-09-12T10:35:00.281Z,24.11
2018-09-12T10:37:29.576Z,24.19
2018-09-12T10:39:58.814Z,24.25
2018-09-12T10:42:28.092Z,24.30
2018-09-12T10:44:57.240Z,24.45
2018-09-12T10:47:29.022Z,24.60
2018-09-12T10:49:58.106Z,24.71
2018-09-12T10:52:27.352Z,24.69
2018-09-12T10:54:56.506Z,24.73
2018-09-12T10:57:25.639Z,24.80
2018-09-12T10:59:54.850Z,24.84
2018-09-12T11:02:24.836Z,24.87
2018-09-12T11:04:54.068Z,24.98
2018-09-12T11:07:23.289Z,25.07
2018-09-12T11:09:52.546Z,25.18
2018-09-12T11:12:21.728Z,25.24
2018-09-12T11:15:01.648Z,25.28
2018-09-12T11:17:33.106Z,25.42
2018-09-12T11:20:04.200Z,25.52
2018-09-12T11:22:37.955Z,25.58
2018-09-12T11:25:12.210Z,25.61
2018-09-12T11:27:44.934Z,25.63
2018-09-12T11:32:51.218Z,25.68
2018-09-12T11:35:35.534Z,25.78
2018-09-12T11:38:10.757Z,25.81
2018-09-12T11:40:46.855Z,25.88
2018-09-12T11:46:11.056Z,26.00
2018-09-12T11:48:47.899Z,26.06
2018-09-12T11:51:17.845Z,26.15
2018-09-12T11:53:47.068Z,26.26
2018-09-12T11:56:16.240Z,26.33
2018-09-12T11:58:45.526Z,26.37
2018-09-12T12:01:16.184Z,26.47
2018-09-12T12:03:45.423Z,26.52
2018-09-12T12:06:14.682Z,26.52
2018-09-12T12:08:43.954Z,26.62
2018-09-12T12:11:13.460Z,26.63
2018-09-12T12:13:42.879Z,26.62
2018-09-12T12:16:12.810Z,26.64
2018-09-12T12:18:42.407Z,26.70
2018-09-12T12:21:12.693Z,26.79
2018-09-12T12:23:42.389Z,26.77
2018-09-12T12:26:13.443Z,26.86
2018-09-12T12:28:44.297Z,26.86
2018-09-12T12:31:13.583Z,26.91
2018-09-12T12:33:42.719Z,26.94
2018-09-12T12:36:12.783Z,26.95
2018-09-12T12:38:42.509Z,27.00
2018-09-12T12:41:12.794Z,27.09
2018-09-12T12:43:43.591Z,27.18
2018-09-12T12:46:15.160Z,27.19
2018-09-12T12:48:44.363Z,27.28
2018-09-12T12:51:13.545Z,27.20
2018-09-12T12:53:42.733Z,27.24
2018-09-12T12:56:13.585Z,27.28
2018-09-12T12:58:42.704Z,27.37
2018-09-12T13:01:12.794Z,27.37
2018-09-12T13:03:42.741Z,27.44
2018-09-12T13:06:13.053Z,27.47
2018-09-12T13:08:43.107Z,27.49
2018-09-12T13:11:13.781Z,27.56
2018-09-12T13:13:44.092Z,27.57
2018-09-12T13:16:13.335Z,27.56
2018-09-12T13:18:42.735Z,27.63
2018-09-12T13:21:13.155Z,27.66
2018-09-12T13:23:42.787Z,27.71
2018-09-12T13:26:13.106Z,27.80
2018-09-12T13:28:42.859Z,27.78
2018-09-12T13:31:13.293Z,27.75
2018-09-12T13:33:43.082Z,27.74
2018-09-12T13:36:13.226Z,27.80
2018-09-12T13:38:44.395Z,27.90
2018-09-12T13:41:13.799Z,27.94
2018-09-12T13:43:45.631Z,27.97
2018-09-12T13:46:14.921Z,28.07
2018-09-12T13:48:44.195Z,28.04
2018-09-12T13:51:13.479Z,28.09
2018-09-12T13:53:45.090Z,28.16
2018-09-12T13:56:15.991Z,28.24
2018-09-12T13:58:47.448Z,28.34
2018-09-12T14:01:16.760Z,28.41
2018-09-12T14:03:45.921Z,28.43
2018-09-12T14:06:15.097Z,28.53
2018-09-12T14:08:44.268Z,28.65
2018-09-12T14:11:13.773Z,28.74
2018-09-12T14:13:43.300Z,28.77
2018-09-12T14:21:12.501Z,28.91
2018-09-12T14:23:41.960Z,28.98
2018-09-12T14:26:12.318Z,29.08
2018-09-12T14:28:41.693Z,29.16
2018-09-12T14:31:11.316Z,29.25
2018-09-12T14:33:40.630Z,29.43
2018-09-12T14:36:10.266Z,29.73
2018-09-12T14:38:44.148Z,30.05
2018-09-12T14:41:18.370Z,30.42
2018-09-12T14:43:52.432Z,30.77
2018-09-12T14:46:25.959Z,30.95
2018-09-12T14:49:01.683Z,31.24
2018-09-12T14:51:35.268Z,31.41
2018-09-12T14:54:08.122Z,31.49
2018-09-12T14:56:48.419Z,31.65
2018-09-12T14:59:19.606Z,31.80
2018-09-12T15:25:40.086Z,32.07
2018-09-12T15:28:12.213Z,32.11
2018-09-12T15:30:43.940Z,32.09
2018-09-12T15:38:09.160Z,31.33
2018-09-12T15:40:40.384Z,30.85
2018-09-12T15:43:11.929Z,30.32
2018-09-12T15:45:41.106Z,29.87
2018-09-12T15:51:03.662Z,29.21
2018-09-12T15:53:32.964Z,28.96
2018-09-12T15:56:02.237Z,28.76
2018-09-12T15:58:31.456Z,28.63
2018-09-12T16:01:00.693Z,28.50
2018-09-12T16:03:31.679Z,28.32
2018-09-12T16:06:01.930Z,28.20
2018-09-12T16:08:31.123Z,28.10
2018-09-12T16:11:00.431Z,28.01
2018-09-12T16:13:30.596Z,27.93
2018-09-12T16:15:59.810Z,27.85
2018-09-12T16:18:31.026Z,27.75
2018-09-12T16:21:01.857Z,27.69
2018-09-12T16:23:31.052Z,27.65
2018-09-12T16:26:00.265Z,27.53
2018-09-12T16:28:29.575Z,27.43
2018-09-12T16:30:58.774Z,27.35
2018-09-12T16:33:27.980Z,27.26
2018-09-12T16:35:57.204Z,27.17
2018-09-12T16:38:27.204Z,27.03
2018-09-12T16:40:56.563Z,26.94
2018-09-12T16:43:25.814Z,26.86
2018-09-12T16:45:55.833Z,26.76
2018-09-12T16:48:25.237Z,26.66
2018-09-12T16:50:56.268Z,26.54
2018-09-12T16:53:26.175Z,26.40
2018-09-12T16:55:55.362Z,26.28
2018-09-12T16:58:24.710Z,26.16
2018-09-12T17:00:57.008Z,26.07
2018-09-12T17:03:26.274Z,25.97
2018-09-12T17:05:58.148Z,25.85
2018-09-12T17:08:27.644Z,25.74
2018-09-12T17:10:56.937Z,25.64
2018-09-12T17:13:26.195Z,25.59
2018-09-12T17:15:55.554Z,25.49
2018-09-12T17:18:25.600Z,25.38
2018-09-12T17:20:54.787Z,25.30
2018-09-12T17:23:24.102Z,25.19
2018-09-12T17:25:53.398Z,25.05
2018-09-12T17:28:22.672Z,24.94
2018-09-12T17:30:52.082Z,24.87
2018-09-12T17:33:21.471Z,24.78
2018-09-12T17:35:50.827Z,24.69
2018-09-12T17:38:20.106Z,24.57
2018-09-12T17:40:51.076Z,24.50
2018-09-12T17:43:21.942Z,24.39
2018-09-12T17:45:51.515Z,24.27
2018-09-12T17:48:20.771Z,24.16
2018-09-12T17:50:50.248Z,24.06
2018-09-12T17:53:19.580Z,23.95
2018-09-12T17:55:49.079Z,23.83
2018-09-12T17:58:19.085Z,23.78
2018-09-12T18:00:49.229Z,23.71
2018-09-12T18:03:18.610Z,23.64
2018-09-12T18:05:50.092Z,23.56
2018-09-12T18:08:19.254Z,23.47
2018-09-12T18:10:48.805Z,23.40
2018-09-12T18:13:19.616Z,23.34
2018-09-12T18:15:49.055Z,23.27
2018-09-12T18:18:18.314Z,23.19
2018-09-12T18:20:50.519Z,23.11
2018-09-12T18:23:19.867Z,23.03
2018-09-12T18:25:50.261Z,22.95
2018-09-12T18:28:21.027Z,22.89
2018-09-12T18:30:50.721Z,22.83
2018-09-12T18:33:20.433Z,22.76
2018-09-12T18:35:51.697Z,22.70
2018-09-12T18:38:21.830Z,22.62
2018-09-12T18:40:51.601Z,22.54
2018-09-12T18:43:25.519Z,22.49
2018-09-12T18:45:56.060Z,22.42
2018-09-12T18:48:25.621Z,22.36
2018-09-12T18:50:55.047Z,22.29
2018-09-12T18:53:24.444Z,22.20
2018-09-12T18:55:54.094Z,22.11
2018-09-12T18:58:23.906Z,22.04
2018-09-12T19:00:53.537Z,21.97
2018-09-12T19:03:23.684Z,21.93
2018-09-12T19:05:53.665Z,21.89
2018-09-12T19:08:23.189Z,21.84
2018-09-12T19:10:53.412Z,21.79
2018-09-12T19:13:23.258Z,21.75
2018-09-12T19:15:54.294Z,21.69
2018-09-12T19:18:23.951Z,21.61
2018-09-12T19:20:53.800Z,21.55
2018-09-12T19:23:23.661Z,21.49
2018-09-12T19:25:53.920Z,21.42
2018-09-12T19:28:24.476Z,21.31
2018-09-12T19:30:54.069Z,21.23
2018-09-12T19:33:24.434Z,21.15
2018-09-12T19:35:54.929Z,21.07
2018-09-12T19:38:24.722Z,20.98
2018-09-12T19:40:54.946Z,20.91
2018-09-12T19:43:25.389Z,20.86
2018-09-12T19:45:54.944Z,20.81
2018-09-12T19:48:24.461Z,20.76
2018-09-12T19:50:54.389Z,20.73
2018-09-12T19:53:24.150Z,20.68
2018-09-12T19:55:54.507Z,20.65
2018-09-12T19:58:24.279Z,20.64
2018-09-12T20:00:54.032Z,20.61
2018-09-12T20:03:24.040Z,20.60
2018-09-12T20:05:54.762Z,20.57
2018-09-12T20:08:24.425Z,20.54
2018-09-12T20:10:54.919Z,20.50
2018-09-12T20:13:24.565Z,20.48
2018-09-12T20:15:54.582Z,20.37
2018-09-12T20:18:24.187Z,20.29
2018-09-12T20:20:53.732Z,20.22
2018-09-12T20:23:23.957Z,20.16
2018-09-12T20:25:53.207Z,20.10
2018-09-12T20:28:23.612Z,20.05
2018-09-12T20:30:52.899Z,20.01
2018-09-12T20:33:24.974Z,19.94
2018-09-12T20:35:54.357Z,19.93
2018-09-12T20:38:23.667Z,19.92
2018-09-12T20:40:52.918Z,19.90
2018-09-12T20:43:22.104Z,19.88
2018-09-12T20:45:51.370Z,19.84
2018-09-12T20:48:20.689Z,19.79
2018-09-12T20:50:49.932Z,19.73
2018-09-12T20:53:19.131Z,19.70
2018-09-12T20:55:50.516Z,19.66
2018-09-12T20:58:19.715Z,19.63
2018-09-12T21:00:48.950Z,19.61
2018-09-12T21:03:18.154Z,19.59
2018-09-12T21:05:47.455Z,19.56
2018-09-12T21:08:17.303Z,19.55
2018-09-12T21:10:47.018Z,19.54
2018-09-12T21:39:36.113Z,19.02
2018-09-12T21:42:05.407Z,19.00
2018-09-12T21:44:34.592Z,18.99
2018-09-12T21:47:03.846Z,18.98
2018-09-12T21:49:33.068Z,18.95
2018-09-12T21:52:02.237Z,18.90
2018-09-12T21:54:31.413Z,18.85
2018-09-12T21:57:00.622Z,18.79
2018-09-12T21:59:29.889Z,18.73
2018-09-12T22:01:59.053Z,18.67
2018-09-12T22:04:28.272Z,18.61
2018-09-12T22:06:57.446Z,18.60
2018-09-12T22:09:26.636Z,18.59
2018-09-12T22:11:55.810Z,18.60
2018-09-12T22:14:24.999Z,18.60
2018-09-12T22:16:54.237Z,18.57
2018-09-12T22:19:23.478Z,18.58
2018-09-12T22:21:52.743Z,18.56
2018-09-12T22:24:21.940Z,18.53
2018-09-12T22:26:51.124Z,18.50
2018-09-12T22:29:20.329Z,18.46
2018-09-12T22:31:49.572Z,18.43
2018-09-12T22:34:18.790Z,18.43
2018-09-12T22:36:47.936Z,18.42
2018-09-12T22:44:17.484Z,18.40
2018-09-12T22:46:46.700Z,18.34
2018-09-12T22:49:16.273Z,18.31
2018-09-12T22:51:45.478Z,18.25
2018-09-12T22:54:15.038Z,18.15
2018-09-12T22:56:44.242Z,18.09
2018-09-12T22:59:13.831Z,18.03
2018-09-12T23:01:42.981Z,17.99
2018-09-12T23:04:13.282Z,17.96
2018-09-12T23:06:44.328Z,17.92
2018-09-12T23:09:13.915Z,17.89
2018-09-12T23:11:43.836Z,17.86
2018-09-12T23:14:13.316Z,17.83
2018-09-12T23:16:42.538Z,17.79
2018-09-12T23:19:11.720Z,17.74
2018-09-12T23:21:43.015Z,17.71
2018-09-12T23:24:13.961Z,17.68
2018-09-12T23:26:47.489Z,17.67
2018-09-12T23:29:17.083Z,17.68
2018-09-12T23:31:46.244Z,17.70
2018-09-12T23:34:15.852Z,17.71
2018-09-12T23:36:45.263Z,17.70
2018-09-12T23:39:15.115Z,17.69
2018-09-12T23:41:44.457Z,17.68
2018-09-12T23:44:14.028Z,17.67
2018-09-12T23:46:44.833Z,17.66
2018-09-12T23:49:14.440Z,17.62
2018-09-12T23:51:43.577Z,17.57
2018-09-12T23:54:13.092Z,17.51
2018-09-12T23:56:42.245Z,17.46
2018-09-12T23:59:11.421Z,17.43
